Time;durP1;ratioP1;P1;durP2;ratioP2;P2;SDS_P1;SDS_P2;PMS_P1;PMS_P2;Temp;Humidity;BMP_temperature;BMP_pressure;BME280_temperature;BME280_humidity;BME280_pressure;Samples;Min_cycle;Max_cycle;Signal;HPM_P1;HPM_P2
2022/05/23 00:00:44;;;;;;;2.40;1.07;;;;;;;14.41;100.00;101194.31;5053727;28;20183;-77
2022/05/23 00:03:10;;;;;;;2.33;1.23;;;;;;;14.37;100.00;101167.97;5058090;28;20483;-76
2022/05/23 00:05:35;;;;;;;2.00;0.90;;;;;;;13.87;100.00;101038.34;5057134;28;20202;-77
2022/05/23 00:08:02;;;;;;;4.23;1.20;;;;;;;14.77;100.00;101165.06;5055495;28;20249;-78
2022/05/23 00:10:27;;;;;;;2.67;1.13;;;;;;;14.07;100.00;101113.75;5037689;28;20194;-78
2022/05/23 00:12:53;;;;;;;2.83;1.10;;;;;;;14.47;100.00;101152.97;5055386;28;20460;-77
2022/05/23 00:15:18;;;;;;;2.97;1.20;;;;;;;14.06;100.00;101096.75;5059150;28;20186;-77
2022/05/23 00:17:44;;;;;;;4.90;1.17;;;;;;;13.15;100.00;101024.91;5055468;28;20188;-76
2022/05/23 00:20:12;;;;;;;1.23;0.90;;;;;;;14.12;100.00;101140.94;5053647;28;20186;-78
2022/05/23 00:22:38;;;;;;;2.40;1.10;;;;;;;14.27;100.00;101154.94;5059143;28;20199;-78
2022/05/23 00:25:09;;;;;;;3.30;1.10;;;;;;;13.92;100.00;101105.94;5061539;28;20468;-76
2022/05/23 00:27:37;;;;;;;7.13;1.13;;;;;;;14.21;100.00;101135.06;5062333;28;20175;-76
2022/05/23 00:30:06;;;;;;;3.30;1.37;;;;;;;13.01;100.00;100937.13;5057964;28;20449;-76
2022/05/23 00:35:18;;;;;;;4.17;1.20;;;;;;;13.34;100.00;101005.22;5061828;28;20429;-76
2022/05/23 00:37:44;;;;;;;4.83;1.27;;;;;;;13.86;100.00;101069.06;5061591;28;21006;-77
2022/05/23 00:40:23;;;;;;;5.40;1.33;;;;;;;13.85;100.00;101075.47;5061369;28;20448;-77
2022/05/23 00:45:34;;;;;;;1.77;1.20;;;;;;;14.05;100.00;101105.06;5055650;28;20529;-78
2022/05/23 00:48:00;;;;;;;3.43;1.13;;;;;;;14.08;100.00;101091.13;5038929;28;20444;-77
2022/05/23 00:50:25;;;;;;;3.00;1.07;;;;;;;13.81;100.00;101071.56;5059846;28;20832;-76
2022/05/23 00:53:01;;;;;;;4.93;1.40;;;;;;;13.47;100.00;101049.31;5059802;28;20205;-78
2022/05/23 00:55:48;;;;;;;3.03;1.30;;;;;;;13.95;100.00;101095.56;5059362;28;20187;-77
2022/05/23 00:58:22;;;;;;;3.33;1.27;;;;;;;13.86;100.00;101082.53;5056962;28;20429;-76
2022/05/23 01:00:48;;;;;;;2.97;0.90;;;;;;;13.50;100.00;101013.84;5056126;28;20448;-77
2022/05/23 01:03:17;;;;;;;3.70;1.00;;;;;;;13.98;100.00;101060.06;5045343;28;20510;-76
2022/05/23 01:05:43;;;;;;;4.00;1.57;;;;;;;13.92;100.00;101063.63;5052820;28;20465;-78
2022/05/23 01:08:08;;;;;;;3.63;1.40;;;;;;;13.45;100.00;101010.97;5044261;28;20457;-76
2022/05/23 01:10:36;;;;;;;6.27;1.30;;;;;;;13.72;100.00;101039.47;5057343;28;20461;-76
2022/05/23 01:13:02;;;;;;;6.20;1.10;;;;;;;13.63;100.00;101048.00;5055569;28;20265;-77
2022/05/23 01:15:30;;;;;;;3.33;1.20;;;;;;;13.96;100.00;101050.53;5056241;28;20480;-76
2022/05/23 01:17:56;;;;;;;2.80;1.20;;;;;;;13.91;100.00;101036.88;5041323;28;20968;-76
2022/05/23 01:20:23;;;;;;;1.37;0.97;;;;;;;13.31;100.00;100969.78;5054246;28;20445;-76
2022/05/23 01:23:21;;;;;;;4.90;1.67;;;;;;;13.52;100.00;101012.59;5057391;28;20457;-75
2022/05/23 01:25:47;;;;;;;3.20;1.37;;;;;;;13.34;100.00;101017.84;5055367;28;20468;-76
2022/05/23 01:28:13;;;;;;;3.43;1.50;;;;;;;13.73;100.00;101038.41;5059213;28;20852;-76
2022/05/23 01:30:40;;;;;;;3.03;1.37;;;;;;;13.67;100.00;101031.19;5059527;28;20183;-77
2022/05/23 01:33:08;;;;;;;9.43;1.50;;;;;;;13.38;100.00;101037.09;5059686;28;20942;-76
2022/05/23 01:35:34;;;;;;;5.93;1.40;;;;;;;12.96;100.00;100924.31;5055132;28;20503;-76
2022/05/23 01:37:59;;;;;;;4.60;1.70;;;;;;;13.37;100.00;101003.13;5056298;28;20481;-76
2022/05/23 01:40:25;;;;;;;3.43;1.50;;;;;;;13.38;100.00;100961.66;5061159;28;20270;-80
2022/05/23 01:42:51;;;;;;;6.80;1.20;;;;;;;13.54;100.00;101026.69;5053281;28;20219;-76
2022/05/23 01:45:21;;;;;;;4.03;1.20;;;;;;;13.20;100.00;100954.25;5053157;28;20474;-76
2022/05/23 01:47:47;;;;;;;6.57;2.00;;;;;;;12.84;100.00;100915.22;5058554;28;20444;-78
2022/05/23 01:50:12;;;;;;;4.13;1.50;;;;;;;13.04;100.00;100950.97;5056222;28;20816;-78
2022/05/23 01:52:39;;;;;;;5.00;1.77;;;;;;;13.32;100.00;100969.56;5059743;28;20264;-78
2022/05/23 01:55:04;;;;;;;7.17;1.70;;;;;;;13.32;100.00;100993.81;5053924;28;20187;-77
2022/05/23 01:57:31;;;;;;;3.83;1.47;;;;;;;13.27;100.00;101000.88;5055571;28;20444;-76
2022/05/23 02:02:42;;;;;;;1.90;1.20;;;;;;;13.13;100.00;100978.50;5055817;28;20515;-78
2022/05/23 02:05:07;;;;;;;5.53;1.63;;;;;;;13.01;100.00;100945.19;5055811;28;20500;-76
2022/05/23 02:07:33;;;;;;;5.90;1.50;;;;;;;12.84;100.00;100928.69;5058368;28;20473;-77
2022/05/23 02:09:58;;;;;;;3.20;1.73;;;;;;;13.18;100.00;100985.97;5051605;28;20569;-79
2022/05/23 02:12:23;;;;;;;3.40;1.30;;;;;;;12.80;100.00;100897.84;5052269;28;20183;-77
2022/05/23 02:14:50;;;;;;;3.03;1.60;;;;;;;12.89;100.00;100932.38;5054834;28;20199;-77
2022/05/23 02:17:16;;;;;;;2.30;1.43;;;;;;;13.15;100.00;100981.81;5053496;28;20194;-77
2022/05/23 02:19:42;;;;;;;2.80;1.70;;;;;;;13.22;100.00;100979.94;5052596;28;20457;-79
2022/05/23 02:22:08;;;;;;;4.70;1.50;;;;;;;12.95;100.00;100921.81;5043418;28;20457;-77
2022/05/23 02:24:34;;;;;;;6.20;1.80;;;;;;;13.08;100.00;100913.72;5058616;28;20510;-77
2022/05/23 02:26:59;;;;;;;2.73;1.50;;;;;;;12.59;100.00;100829.00;5053123;28;20217;-80
2022/05/23 02:29:25;;;;;;;3.77;1.20;;;;;;;13.15;100.00;100973.75;5052258;28;20618;-79
2022/05/23 02:31:50;;;;;;;1.80;1.20;;;;;;;13.13;100.00;100943.50;5051354;28;20195;-77
2022/05/23 02:34:18;;;;;;;4.17;1.57;;;;;;;12.15;100.00;100831.38;5054130;28;20253;-77
2022/05/23 02:36:45;;;;;;;5.37;1.47;;;;;;;12.91;100.00;100928.69;5052277;28;20191;-77
2022/05/23 02:39:10;;;;;;;4.90;1.80;;;;;;;12.99;100.00;100936.50;5054391;28;20441;-77
2022/05/23 02:41:36;;;;;;;3.30;1.40;;;;;;;12.06;100.00;100788.75;5047783;28;20473;-77
2022/05/23 02:44:02;;;;;;;3.73;1.33;;;;;;;12.62;100.00;100860.84;5056046;28;20684;-78
2022/05/23 02:46:28;;;;;;;4.90;1.40;;;;;;;13.14;100.00;100936.25;5047801;28;25197;-78
2022/05/23 02:48:54;;;;;;;4.63;1.60;;;;;;;11.66;100.00;100700.13;5051892;28;20441;-77
2022/05/23 02:51:20;;;;;;;5.63;1.50;;;;;;;12.79;100.00;100867.41;5037089;28;20644;-76
2022/05/23 02:53:45;;;;;;;2.83;1.10;;;;;;;12.77;100.00;100837.19;5047662;28;20460;-78
2022/05/23 02:56:11;;;;;;;3.27;1.53;;;;;;;12.77;100.00;100874.06;5056977;28;20810;-77
2022/05/23 02:58:36;;;;;;;1.67;1.00;;;;;;;12.93;100.00;100868.19;5052256;28;20187;-79
2022/05/23 03:01:03;;;;;;;2.90;1.40;;;;;;;12.40;100.00;100844.97;5053513;28;20266;-77
2022/05/23 03:03:28;;;;;;;3.37;1.53;;;;;;;12.09;100.00;100788.34;5045763;28;20286;-77
2022/05/23 03:05:53;;;;;;;2.50;1.30;;;;;;;12.72;100.00;100906.97;5052461;28;20465;-77
2022/05/23 03:08:22;;;;;;;2.60;1.20;;;;;;;12.89;100.00;100932.38;5051769;28;20210;-79
2022/05/23 03:10:49;;;;;;;3.80;1.03;;;;;;;12.14;100.00;100794.75;5056788;28;20194;-76
2022/05/23 03:13:15;;;;;;;3.40;1.50;;;;;;;12.93;100.00;100924.75;5051838;28;20518;-78
2022/05/23 03:15:41;;;;;;;4.30;1.20;;;;;;;12.92;100.00;100908.78;5053062;28;20434;-77
2022/05/23 03:18:06;;;;;;;3.23;1.43;;;;;;;12.86;100.00;100911.28;5053257;28;20232;-78
2022/05/23 03:20:32;;;;;;;6.70;1.40;;;;;;;12.87;100.00;100901.34;5058333;28;21087;-76
2022/05/23 03:28:26;;;;;;;3.37;1.53;;;;;;;12.68;100.00;100875.34;5057418;28;21019;-78
2022/05/23 03:30:51;;;;;;;6.63;1.80;;;;;;;12.61;100.00;100843.88;5054336;28;20536;-75
2022/05/23 03:33:17;;;;;;;4.30;1.87;;;;;;;12.26;100.00;100829.88;5037252;28;20214;-77
2022/05/23 03:35:44;;;;;;;4.03;1.73;;;;;;;12.95;100.00;100908.34;5058071;28;20183;-76
2022/05/23 03:38:10;;;;;;;5.10;1.80;;;;;;;12.52;100.00;100876.59;5056609;28;20532;-75
2022/05/23 03:40:38;;;;;;;7.40;2.07;;;;;;;12.72;100.00;100898.91;5056660;28;22264;-77
2022/05/23 03:43:04;;;;;;;7.90;1.80;;;;;;;12.72;100.00;100900.78;5063221;22;20679;-72
2022/05/23 03:45:32;;;;;;;2.77;1.60;;;;;;;12.82;100.00;100893.09;5048558;28;20472;-72
2022/05/23 03:47:58;;;;;;;4.70;1.90;;;;;;;12.93;100.00;100888.88;5053197;28;20453;-73
2022/05/23 03:50:26;;;;;;;5.27;1.73;;;;;;;13.03;100.00;100886.59;5057493;28;20896;-72
2022/05/23 03:52:52;;;;;;;3.70;1.80;;;;;;;13.07;100.00;100885.94;5060676;28;20578;-73
2022/05/23 03:55:18;;;;;;;4.60;1.60;;;;;;;13.19;100.00;100882.56;5057315;28;20499;-72
2022/05/23 03:57:44;;;;;;;2.73;1.83;;;;;;;12.81;100.00;100773.81;5056001;28;20250;-73
2022/05/23 04:00:12;;;;;;;3.80;1.40;;;;;;;13.36;100.00;100866.75;5059320;28;20458;-73
2022/05/23 04:02:37;;;;;;;3.57;1.70;;;;;;;13.49;100.00;100858.59;5059303;28;20175;-73
2022/05/23 04:05:04;;;;;;;3.40;1.80;;;;;;;12.70;100.00;100750.28;5056348;28;20230;-73
2022/05/23 04:07:30;;;;;;;2.37;1.43;;;;;;;12.76;100.00;100768.25;5058963;28;20183;-73
2022/05/23 04:09:56;;;;;;;4.97;2.10;;;;;;;13.31;100.00;100819.75;5059079;28;20504;-72
2022/05/23 04:12:21;;;;;;;2.80;1.53;;;;;;;12.94;100.00;100762.16;5051732;28;20265;-73
2022/05/23 04:14:47;;;;;;;2.73;1.50;;;;;;;13.18;100.00;100768.63;5043737;28;20207;-73
2022/05/23 04:17:12;;;;;;;2.37;1.43;;;;;;;13.07;100.00;100745.09;5049674;28;20214;-72
2022/05/23 04:19:38;;;;;;;1.53;1.40;;;;;;;13.42;100.00;100809.31;5052929;28;20271;-73
2022/05/23 04:22:03;;;;;;;4.80;1.97;;;;;;;13.49;100.00;100783.16;5062173;28;20559;-73
2022/05/23 04:24:29;;;;;;;3.60;1.70;;;;;;;13.51;100.00;100821.47;5057961;28;20280;-72
2022/05/23 04:26:56;;;;;;;4.80;1.57;;;;;;;13.31;100.00;100795.50;5056032;28;20203;-72
2022/05/23 04:29:22;;;;;;;5.10;1.70;;;;;;;13.72;100.00;100810.34;5059424;28;20195;-73
2022/05/23 04:31:48;;;;;;;6.73;1.93;;;;;;;13.89;100.00;100809.78;5058287;28;20444;-72
2022/05/23 04:36:58;;;;;;;2.97;1.60;;;;;;;14.01;100.00;100789.94;5057296;28;20216;-72
2022/05/23 04:39:24;;;;;;;2.70;1.40;;;;;;;13.89;100.00;100785.53;5060438;28;20433;-73
2022/05/23 04:41:49;;;;;;;3.27;1.90;;;;;;;13.55;100.00;100720.31;5066478;28;20304;-72
2022/05/23 04:44:15;;;;;;;5.07;1.80;;;;;;;13.68;100.00;100733.66;5047083;28;20565;-72
2022/05/23 04:49:41;;;;;;;3.07;1.53;;;;;;;13.75;100.00;100702.06;5058086;28;20280;-73
2022/05/23 04:49:42;;;;;;;2.87;1.50;;;;;;;14.04;100.00;100767.09;5059277;28;20236;-72
2022/05/23 04:52:15;;;;;;;4.50;1.90;;;;;;;13.82;100.00;100774.78;5062517;28;20460;-73
2022/05/23 04:54:42;;;;;;;3.10;1.67;;;;;;;13.66;100.00;100738.44;5059753;28;20552;-72
2022/05/23 04:57:11;;;;;;;4.73;2.10;;;;;;;13.34;100.00;100671.16;5060075;28;20868;-73
2022/05/23 04:59:39;;;;;;;4.83;1.90;;;;;;;13.77;100.00;100772.75;5060488;28;20456;-73
2022/05/23 05:02:05;;;;;;;3.80;1.97;;;;;;;13.71;100.00;100717.03;5058320;28;20499;-72
2022/05/23 05:04:31;;;;;;;6.33;1.83;;;;;;;13.68;100.00;100720.19;5061102;28;20466;-72
2022/05/23 05:06:57;;;;;;;2.97;1.57;;;;;;;13.91;100.00;100767.22;5064585;28;20469;-73
2022/05/23 05:09:23;;;;;;;5.00;2.37;;;;;;;13.53;100.00;100680.09;5060077;28;25857;-72
2022/05/23 05:11:48;;;;;;;4.23;1.90;;;;;;;13.81;100.00;100707.63;5064058;28;20193;-72
2022/05/23 05:14:14;;;;;;;4.77;2.00;;;;;;;13.70;100.00;100679.53;5061965;28;20587;-72
2022/05/23 05:16:39;;;;;;;3.67;2.40;;;;;;;13.91;100.00;100716.81;5042186;28;20183;-72
2022/05/23 05:19:05;;;;;;;3.30;2.03;;;;;;;13.49;100.00;100654.66;5063044;28;20277;-72
2022/05/23 05:21:30;;;;;;;5.77;1.80;;;;;;;13.70;100.00;100656.09;5056807;28;20186;-73
2022/05/23 05:23:56;;;;;;;3.37;1.80;;;;;;;14.12;100.00;100736.31;5062387;28;20561;-73
2022/05/23 05:26:23;;;;;;;4.00;1.77;;;;;;;14.29;100.00;100721.19;5061899;28;20229;-72
2022/05/23 05:28:49;;;;;;;3.90;2.07;;;;;;;13.60;100.00;100588.41;5061364;28;20268;-73
2022/05/23 05:31:23;;;;;;;4.40;2.13;;;;;;;13.95;100.00;100639.03;5041149;28;20450;-72
2022/05/23 05:34:00;;;;;;;4.73;1.90;;;;;;;14.36;100.00;100694.13;5061955;28;20690;-72
2022/05/23 05:36:32;;;;;;;6.53;2.17;;;;;;;14.07;100.00;100655.25;5060685;28;20428;-72
2022/05/23 05:39:03;;;;;;;3.03;1.80;;;;;;;14.57;100.00;100701.75;5056331;28;20498;-73
2022/05/23 05:41:33;;;;;;;5.47;2.10;;;;;;;14.40;100.00;100704.22;5055285;28;20865;-73
2022/05/23 05:44:07;;;;;;;4.80;2.43;;;;;;;14.52;100.00;100701.59;5062210;28;20480;-73
2022/05/23 05:46:46;;;;;;;3.27;1.70;;;;;;;14.49;100.00;100666.94;5055700;28;20494;-73
2022/05/23 05:49:18;;;;;;;3.80;1.90;;;;;;;14.18;100.00;100622.94;5054224;28;21045;-73
2022/05/23 05:51:44;;;;;;;4.17;1.93;;;;;;;14.64;100.00;100677.38;5057158;28;20444;-73
2022/05/23 05:54:14;;;;;;;4.63;2.43;;;;;;;14.69;100.00;100650.50;5058475;28;20556;-73
2022/05/23 05:56:39;;;;;;;3.87;2.10;;;;;;;14.65;100.00;100658.22;5056034;28;20425;-73
2022/05/23 05:59:06;;;;;;;3.17;2.03;;;;;;;14.65;100.00;100684.41;5061097;28;20520;-73
2022/05/23 06:01:31;;;;;;;3.70;1.80;;;;;;;14.83;100.00;100676.25;5053466;28;20187;-73
2022/05/23 06:03:57;;;;;;;4.80;2.27;;;;;;;14.99;100.00;100671.25;5040659;28;20475;-73
2022/05/23 06:11:50;;;;;;;3.40;2.07;;;;;;;15.05;100.00;100640.59;5057128;28;20931;-72
2022/05/23 06:14:16;;;;;;;3.50;2.00;;;;;;;15.26;100.00;100656.22;5059886;28;20464;-72
2022/05/23 06:16:41;;;;;;;3.40;2.33;;;;;;;15.15;100.00;100644.34;5056580;28;20208;-73
2022/05/23 06:19:07;;;;;;;5.70;2.20;;;;;;;14.53;100.00;100559.41;5038946;28;20187;-72
2022/05/23 06:21:32;;;;;;;5.10;2.10;;;;;;;14.88;100.00;100578.34;5053883;28;20201;-73
2022/05/23 06:23:58;;;;;;;3.10;2.20;;;;;;;15.42;100.00;100648.47;5029628;28;20245;-72
2022/05/23 06:26:28;;;;;;;2.97;2.27;;;;;;;15.18;100.00;100623.34;5054882;28;20950;-72
2022/05/23 06:28:56;;;;;;;5.63;2.90;;;;;;;15.48;100.00;100645.66;5061838;28;20258;-72
2022/05/23 06:31:22;;;;;;;4.30;2.40;;;;;;;15.30;100.00;100619.59;5062917;28;20498;-72
2022/05/23 06:33:48;;;;;;;6.83;2.70;;;;;;;15.68;100.00;100625.56;5043729;28;20468;-72
2022/05/23 06:36:15;;;;;;;3.57;2.70;;;;;;;15.56;100.00;100626.41;5060927;28;20642;-71
2022/05/23 06:38:44;;;;;;;3.30;2.43;;;;;;;15.64;100.00;100621.66;5050700;28;20445;-72
2022/05/23 06:41:10;;;;;;;6.17;2.70;;;;;;;15.31;100.00;100547.44;5054999;28;20445;-72
2022/05/23 06:43:37;;;;;;;3.20;2.60;;;;;;;15.22;100.00;100557.81;5060377;28;20572;-72
2022/05/23 06:46:03;;;;;;;3.97;2.23;;;;;;;15.71;100.00;100609.72;5056093;28;20497;-72
2022/05/23 06:48:30;;;;;;;5.40;2.87;;;;;;;15.20;100.00;100503.19;5061471;28;20476;-73
2022/05/23 06:50:55;;;;;;;2.67;1.93;;;;;;;15.87;100.00;100593.78;5061103;28;20448;-72
2022/05/23 06:53:23;;;;;;;4.27;2.30;;;;;;;16.09;100.00;100600.19;5042115;28;20465;-72
2022/05/23 06:55:49;;;;;;;3.60;2.37;;;;;;;15.78;100.00;100559.00;5050048;28;20208;-72
2022/05/23 06:58:16;;;;;;;4.07;2.73;;;;;;;16.19;100.00;100591.44;5054651;28;20465;-72
2022/05/23 07:00:43;;;;;;;4.50;2.40;;;;;;;16.04;100.00;100564.91;5055842;28;20444;-72
2022/05/23 07:03:09;;;;;;;4.53;2.53;;;;;;;16.09;100.00;100559.59;5060571;28;20461;-72
2022/05/23 07:13:50;;;;;;;7.77;3.20;;;;;;;15.78;100.00;100517.63;5060848;28;20535;-72
2022/05/23 07:16:17;;;;;;;5.37;2.50;;;;;;;15.83;100.00;100542.06;5059138;28;20438;-71
2022/05/23 07:18:43;;;;;;;6.20;2.80;;;;;;;16.34;100.00;100601.72;5060819;28;20187;-72
2022/05/23 07:21:08;;;;;;;4.33;2.40;;;;;;;16.45;100.00;100580.00;5058035;28;20471;-72
2022/05/23 07:23:37;;;;;;;7.80;3.00;;;;;;;16.39;100.00;100588.28;5056227;28;20300;-72
2022/05/23 07:26:05;;;;;;;4.13;2.90;;;;;;;16.61;100.00;100596.53;5060709;28;20275;-72
2022/05/23 07:28:30;;;;;;;6.23;3.50;;;;;;;16.72;100.00;100588.34;5057604;28;20866;-71
2022/05/23 07:30:56;;;;;;;6.13;3.80;;;;;;;16.69;100.00;100586.13;5058527;28;20436;-72
2022/05/23 07:33:21;;;;;;;6.47;3.30;;;;;;;16.59;100.00;100571.56;5064031;28;20231;-72
2022/05/23 07:36:00;;;;;;;4.17;2.60;;;;;;;16.35;100.00;100536.53;5063610;28;20214;-72
2022/05/23 07:38:28;;;;;;;6.53;2.70;;;;;;;16.81;100.00;100586.06;5064469;28;20183;-72
2022/05/23 07:40:54;;;;;;;3.40;2.77;;;;;;;16.81;100.00;100583.38;5063221;28;20454;-71
2022/05/23 07:43:22;;;;;;;8.20;3.17;;;;;;;16.65;100.00;100548.94;5063735;28;20476;-71
2022/05/23 07:45:49;;;;;;;4.90;2.90;;;;;;;16.91;100.00;100574.56;5056816;28;20460;-72
2022/05/23 07:48:16;;;;;;;5.23;2.97;;;;;;;16.86;100.00;100547.38;5060246;28;21069;-72
2022/05/23 07:50:45;;;;;;;3.60;2.67;;;;;;;17.13;100.00;100558.38;5043023;28;20490;-71
2022/05/23 08:01:24;;;;;;;3.63;2.70;;;;;;;16.99;100.00;100454.94;5060965;28;20432;-72
2022/05/23 08:03:50;;;;;;;6.20;3.20;;;;;;;17.46;100.00;100513.28;5043751;28;21001;-72
2022/05/23 08:06:17;;;;;;;4.50;3.37;;;;;;;17.72;100.00;100531.47;5063668;28;20254;-72
2022/05/23 08:08:42;;;;;;;7.67;3.33;;;;;;;17.86;100.00;100531.13;5047001;28;20826;-72
2022/05/23 08:11:08;;;;;;;5.03;3.93;;;;;;;17.71;100.00;100491.88;5062720;28;20456;-72
2022/05/23 08:13:40;;;;;;;5.50;3.00;;;;;;;17.93;100.00;100518.97;5055921;28;20237;-72
2022/05/23 08:16:06;;;;;;;7.07;3.73;;;;;;;18.09;100.00;100528.13;5045576;28;20437;-71
2022/05/23 08:18:32;;;;;;;5.33;4.07;;;;;;;17.57;100.00;100437.22;5063009;28;20453;-72
2022/05/23 08:20:59;;;;;;;6.60;3.37;;;;;;;18.17;100.00;100505.94;5057353;28;20190;-72
2022/05/23 08:23:24;;;;;;;7.00;3.37;;;;;;;17.62;100.00;100423.72;5061182;28;20465;-72
2022/05/23 08:25:50;;;;;;;3.83;3.20;;;;;;;18.03;100.00;100481.13;5064434;28;20476;-71
2022/05/23 08:28:15;;;;;;;5.37;3.70;;;;;;;18.16;100.00;100496.16;5062858;28;20199;-71
2022/05/23 08:30:40;;;;;;;5.50;3.20;;;;;;;17.99;100.00;100444.72;5056483;28;20195;-71
2022/05/23 08:33:06;;;;;;;5.33;3.10;;;;;;;18.31;100.00;100498.16;5058513;28;20210;-72
2022/05/23 08:35:32;;;;;;;4.33;2.50;;;;;;;18.41;100.00;100498.28;5062812;28;22542;-72
2022/05/23 08:37:59;;;;;;;3.00;2.53;;;;;;;18.38;100.00;100477.06;5062716;28;20447;-72
2022/05/23 08:40:36;;;;;;;5.53;2.67;;;;;;;18.54;100.00;100488.84;5059017;28;20474;-72
2022/05/23 08:43:05;;;;;;;4.40;3.10;;;;;;;18.29;100.00;100443.34;5059199;28;20468;-72
2022/05/23 08:45:44;;;;;;;4.47;3.10;;;;;;;18.65;100.00;100485.13;5058302;28;21038;-72
2022/05/23 08:48:33;;;;;;;6.87;3.13;;;;;;;18.51;100.00;100451.34;5060329;28;20425;-71
2022/05/23 08:51:15;;;;;;;3.50;2.93;;;;;;;18.72;100.00;100477.59;5045529;28;20422;-72
2022/05/23 08:53:48;;;;;;;6.20;3.10;;;;;;;18.88;100.00;100477.72;5061012;28;20843;-72
2022/05/23 08:56:26;;;;;;;7.80;3.90;;;;;;;18.94;100.00;100457.63;5060782;28;20503;-72
2022/05/23 08:58:55;;;;;;;5.80;2.53;;;;;;;18.88;100.00;100453.25;5059444;28;20594;-72
2022/05/23 09:01:38;;;;;;;6.87;3.13;;;;;;;18.53;100.00;100401.13;5060055;28;20486;-72
2022/05/23 09:04:23;;;;;;;5.57;2.97;;;;;;;18.99;100.00;100435.94;5061371;28;20968;-72
2022/05/23 09:06:50;;;;;;;5.20;3.33;;;;;;;19.04;100.00;100437.88;5058552;28;20465;-72
2022/05/23 09:09:22;;;;;;;7.60;3.47;;;;;;;18.72;100.00;100393.38;5061672;28;20449;-72
2022/05/23 09:11:55;;;;;;;6.80;3.60;;;;;;;19.10;100.00;100436.81;5060307;28;20441;-72
2022/05/23 09:14:21;;;;;;;6.47;3.63;;;;;;;18.77;100.00;100334.72;5061694;28;20464;-72
2022/05/23 09:16:48;;;;;;;4.70;3.47;;;;;;;19.35;100.00;100444.22;5059181;28;21145;-72
2022/05/23 09:19:35;;;;;;;4.33;3.00;;;;;;;19.14;100.00;100427.84;5058814;28;20441;-72
2022/05/23 09:22:14;;;;;;;6.23;3.60;;;;;;;18.89;100.00;100376.94;5040451;28;20813;-72
2022/05/23 09:24:55;;;;;;;3.70;3.33;;;;;;;18.86;100.00;100376.59;5061989;28;20952;-73
2022/05/23 09:27:59;;;;;;;5.70;3.10;;;;;;;19.23;100.00;100403.66;5063875;28;20929;-72
2022/05/23 09:30:27;;;;;;;8.40;3.83;;;;;;;19.15;100.00;100379.72;5042978;28;20445;-71
2022/05/23 09:33:01;;;;;;;8.00;3.63;;;;;;;19.41;100.00;100408.63;5059941;28;20468;-72
2022/05/23 09:35:39;;;;;;;5.97;3.87;;;;;;;19.49;100.00;100404.56;5062456;28;20454;-72
2022/05/23 09:38:07;;;;;;;5.50;3.03;;;;;;;19.50;100.00;100403.50;5059600;28;20554;-72
2022/05/23 09:40:36;;;;;;;3.90;3.43;;;;;;;19.63;100.00;100397.50;5059455;28;20433;-72
2022/05/23 09:49:19;;;;;;;7.40;3.53;;;;;;;19.74;100.00;100324.91;5018747;28;20443;-76
2022/05/23 09:51:58;;;;;;;5.83;3.80;;;;;;;20.04;100.00;100367.63;5038662;28;20449;-76
2022/05/23 09:54:37;;;;;;;5.07;3.13;;;;;;;20.05;100.00;100372.00;5019134;28;20466;-76
2022/05/23 09:57:24;;;;;;;5.13;3.07;;;;;;;19.85;100.00;100323.84;5040572;28;20533;-76
2022/05/23 10:00:00;;;;;;;7.10;3.60;;;;;;;20.37;100.00;100354.53;5037531;28;20477;-76
2022/05/23 10:02:34;;;;;;;6.10;3.53;;;;;;;20.44;100.00;100363.22;5033046;28;20481;-77
2022/05/23 10:05:00;;;;;;;5.80;3.47;;;;;;;20.14;100.00;100320.53;5034863;28;20845;-76
2022/05/23 10:07:37;;;;;;;5.03;3.23;;;;;;;20.07;100.00;100309.09;5039858;28;20485;-76
2022/05/23 10:10:28;;;;;;;4.30;3.10;;;;;;;20.49;100.00;100314.19;5039561;28;20520;-76
2022/05/23 10:13:24;;;;;;;4.77;2.90;;;;;;;20.38;100.00;100337.09;5035026;28;20468;-76
2022/05/23 10:16:09;;;;;;;5.27;3.37;;;;;;;20.53;100.00;100326.16;5040657;28;20430;-76
2022/05/23 10:18:44;;;;;;;6.60;3.37;;;;;;;20.51;100.00;100324.78;5019879;28;20446;-76
2022/05/23 10:21:32;;;;;;;6.20;3.20;;;;;;;20.60;100.00;100317.72;5038913;28;20496;-76
2022/05/23 10:24:06;;;;;;;7.93;3.33;;;;;;;20.59;100.00;100326.16;5039045;28;20472;-75
2022/05/23 10:26:51;;;;;;;8.23;3.10;;;;;;;20.37;100.00;100278.28;5042183;28;20466;-76
2022/05/23 10:29:26;;;;;;;3.70;2.83;;;;;;;20.66;100.00;100302.97;5039747;28;21287;-74
2022/05/23 10:31:58;;;;;;;3.77;3.00;;;;;;;20.13;100.00;100229.03;5040482;28;20414;-75
2022/05/23 10:34:50;;;;;;;7.80;4.23;;;;;;;20.77;100.00;100301.84;5039700;28;20470;-75
2022/05/23 10:37:19;;;;;;;4.60;2.67;;;;;;;20.80;100.00;100288.72;5040738;28;20489;-75
2022/05/23 10:42:52;;;;;;;5.40;2.80;;;;;;;20.72;100.00;100205.66;5041528;28;20465;-75
2022/05/23 10:45:30;;;;;;;4.63;2.50;;;;;;;21.06;100.00;100268.44;5037654;28;20856;-75
2022/05/23 10:48:07;;;;;;;10.70;3.10;;;;;;;21.28;100.00;100254.34;5039010;28;20438;-75
2022/05/23 10:50:56;;;;;;;6.00;3.10;;;;;;;20.86;100.00;100167.69;5042366;28;20444;-75
2022/05/23 10:53:46;;;;;;;4.63;2.40;;;;;;;21.22;100.00;100215.41;5042248;28;20519;-77
2022/05/23 10:56:25;;;;;;;8.43;2.90;;;;;;;21.51;100.00;100250.13;5041772;28;20461;-77
2022/05/23 10:59:08;;;;;;;3.23;2.70;;;;;;;21.59;100.00;100235.06;5037824;28;21002;-75
2022/05/23 11:01:43;;;;;;;5.50;2.60;;;;;;;21.71;100.00;100231.94;5042069;28;20902;-76
2022/05/23 11:04:21;;;;;;;6.47;2.67;;;;;;;21.67;100.00;100237.97;5023914;28;20446;-75
2022/05/23 11:06:58;;;;;;;3.30;2.67;;;;;;;21.79;100.00;100245.78;5040385;28;20470;-75
2022/05/23 11:09:55;;;;;;;7.80;2.53;;;;;;;21.58;100.00;100231.50;5039908;28;20452;-77
2022/05/23 11:12:26;;;;;;;5.23;2.30;;;;;;;21.84;100.00;100226.63;5041181;28;20453;-76
2022/05/23 11:15:05;;;;;;;5.23;2.27;;;;;;;21.72;100.00;100184.44;5040396;28;20496;-75
2022/05/23 11:18:01;;;;;;;3.40;2.63;;;;;;;22.13;100.00;100209.38;5040527;28;20481;-75
2022/05/23 11:20:34;;;;;;;2.70;2.13;;;;;;;22.09;100.00;100208.31;5044302;28;20866;-78
2022/05/23 11:23:21;;;;;;;4.40;2.33;;;;;;;22.31;100.00;100210.56;5020236;28;20627;-76
2022/05/23 11:25:51;;;;;;;3.90;2.57;;;;;;;21.80;100.00;100101.91;5036964;28;20473;-78
2022/05/23 11:34:30;;;;;;;3.23;2.03;;;;;;;22.51;100.00;100158.38;5035200;28;20536;-77
2022/05/23 11:37:08;;;;;;;2.80;2.07;;;;;;;22.30;100.00;100157.00;5036695;28;20433;-76
2022/05/23 11:39:55;;;;;;;5.50;3.00;;;;;;;22.46;100.00;100163.09;5032354;28;20655;-77
2022/05/23 11:42:29;;;;;;;6.20;2.37;;;;;;;22.56;100.00;100171.13;5037661;28;20446;-76
2022/05/23 11:47:53;;;;;;;6.77;1.83;;;;;;;22.62;100.00;100164.47;5036501;28;20547;-77
2022/05/23 11:50:19;;;;;;;3.63;2.30;;;;;;;22.64;100.00;100159.53;5038182;28;21202;-76
2022/05/23 11:53:00;;;;;;;5.95;2.85;;;;;;;22.28;100.00;100083.56;5017793;28;20446;-77
2022/05/23 11:55:50;;;;;;;3.43;1.93;;;;;;;22.76;100.00;100137.22;5035333;28;20191;-76
2022/05/23 11:58:31;;;;;;;3.80;2.73;;;;;;;22.68;100.00;100126.94;5037919;28;20444;-77
2022/05/23 12:01:11;;;;;;;3.23;2.60;;;;;;;22.82;100.00;100114.16;5037594;28;20450;-77
2022/05/23 12:03:58;;;;;;;4.13;2.63;;;;;;;22.94;100.00;100109.06;5035561;28;20551;-77
2022/05/23 12:06:24;;;;;;;3.17;2.37;;;;;;;22.78;100.00;100103.00;5014967;28;20466;-77
2022/05/23 12:09:01;;;;;;;3.30;1.53;;;;;;;22.95;100.00;100098.97;5038371;28;20483;-76
2022/05/23 12:11:34;;;;;;;3.00;1.73;;;;;;;23.04;100.00;100094.41;5036749;28;20330;-78
2022/05/23 12:14:20;;;;;;;4.70;2.13;;;;;;;23.08;100.00;100100.91;5035737;28;20462;-78
2022/05/23 12:16:49;;;;;;;3.30;2.03;;;;;;;22.98;100.00;100095.63;5033680;28;20442;-77
2022/05/23 12:19:40;;;;;;;2.63;1.67;;;;;;;23.08;100.00;100080.94;5039433;28;20441;-77
2022/05/23 12:22:12;;;;;;;3.70;1.90;;;;;;;23.19;100.00;100072.25;5036719;28;20535;-77
2022/05/23 12:25:10;;;;;;;7.50;1.90;;;;;;;23.08;100.00;100062.59;5033943;28;20461;-77
2022/05/23 12:27:44;;;;;;;4.83;2.00;;;;;;;23.39;100.00;100076.53;5039381;28;20438;-77